sensor_id;sensor_type;location;lat;lon;timestamp;pressure;altitude;pressure_sealevel;temperature;humidity
66681;BME280;53575;51.366;12.350;2023-08-12T00:01:09;100630.94;;;18.89;83.38
66681;BME280;53575;51.366;12.350;2023-08-12T00:03:35;100629.25;;;18.86;83.51
66681;BME280;53575;51.366;12.350;2023-08-12T00:06:00;100634.66;;;18.83;84.31
66681;BME280;53575;51.366;12.350;2023-08-12T00:08:26;100629.44;;;18.80;86.19
66681;BME280;53575;51.366;12.350;2023-08-12T00:10:52;100631.31;;;18.78;85.95
66681;BME280;53575;51.366;12.350;2023-08-12T00:13:17;100639.34;;;18.75;84.62
66681;BME280;53575;51.366;12.350;2023-08-12T00:15:44;100637.66;;;18.72;85.67
66681;BME280;53575;51.366;12.350;2023-08-12T00:18:09;100636.00;;;18.68;85.62
66681;BME280;53575;51.366;12.350;2023-08-12T00:20:35;100632.59;;;18.65;86.24
66681;BME280;53575;51.366;12.350;2023-08-12T00:23:03;100633.47;;;18.65;87.55
66681;BME280;53575;51.366;12.350;2023-08-12T00:25:29;100627.38;;;18.63;88.92
66681;BME280;53575;51.366;12.350;2023-08-12T00:27:54;100622.06;;;18.63;89.90
66681;BME280;53575;51.366;12.350;2023-08-12T00:30:20;100622.88;;;18.65;89.48
66681;BME280;53575;51.366;12.350;2023-08-12T00:32:45;100618.59;;;18.61;87.66
66681;BME280;53575;51.366;12.350;2023-08-12T00:35:11;100620.38;;;18.61;88.89
66681;BME280;53575;51.366;12.350;2023-08-12T00:37:36;100623.97;;;18.60;87.27
66681;BME280;53575;51.366;12.350;2023-08-12T00:40:01;100621.22;;;18.63;86.41
66681;BME280;53575;51.366;12.350;2023-08-12T00:42:27;100616.06;;;18.58;87.10
66681;BME280;53575;51.366;12.350;2023-08-12T00:44:52;100611.84;;;18.52;87.54
66681;BME280;53575;51.366;12.350;2023-08-12T00:47:18;100609.31;;;18.49;87.57
66681;BME280;53575;51.366;12.350;2023-08-12T00:49:43;100604.00;;;18.49;87.56
66681;BME280;53575;51.366;12.350;2023-08-12T00:52:14;100606.75;;;18.46;89.67
66681;BME280;53575;51.366;12.350;2023-08-12T00:54:40;100607.75;;;18.44;88.60
66681;BME280;53575;51.366;12.350;2023-08-12T00:57:06;100602.63;;;18.39;89.36
66681;BME280;53575;51.366;12.350;2023-08-12T00:59:32;100598.31;;;18.35;90.05
66681;BME280;53575;51.366;12.350;2023-08-12T01:01:57;100590.44;;;18.34;90.77
66681;BME280;53575;51.366;12.350;2023-08-12T01:04:23;100586.94;;;18.33;91.47
66681;BME280;53575;51.366;12.350;2023-08-12T01:06:48;100589.66;;;18.32;90.54
66681;BME280;53575;51.366;12.350;2023-08-12T01:09:14;100587.09;;;18.29;92.20
66681;BME280;53575;51.366;12.350;2023-08-12T01:14:56;100579.09;;;18.30;91.11
66681;BME280;53575;51.366;12.350;2023-08-12T01:17:16;100581.75;;;18.30;90.75
66681;BME280;53575;51.366;12.350;2023-08-12T01:19:43;100585.31;;;18.29;90.86
66681;BME280;53575;51.366;12.350;2023-08-12T01:22:10;100581.81;;;18.29;90.98
66681;BME280;53575;51.366;12.350;2023-08-12T01:24:41;100583.63;;;18.26;91.00
66681;BME280;53575;51.366;12.350;2023-08-12T01:27:08;100583.78;;;18.22;91.28
66681;BME280;53575;51.366;12.350;2023-08-12T01:29:36;100580.19;;;18.24;92.43
66681;BME280;53575;51.366;12.350;2023-08-12T01:32:14;100581.81;;;18.29;91.52
66681;BME280;53575;51.366;12.350;2023-08-12T01:34:47;100574.81;;;18.26;91.68
66681;BME280;53575;51.366;12.350;2023-08-12T01:37:28;100573.91;;;18.27;91.90
66681;BME280;53575;51.366;12.350;2023-08-12T01:39:54;100573.81;;;18.30;91.88
66681;BME280;53575;51.366;12.350;2023-08-12T01:42:21;100565.94;;;18.29;91.98
66681;BME280;53575;51.366;12.350;2023-08-12T01:44:48;100571.16;;;18.30;93.08
66681;BME280;53575;51.366;12.350;2023-08-12T01:47:13;100573.78;;;18.32;92.58
66681;BME280;53575;51.366;12.350;2023-08-12T01:49:38;100572.88;;;18.31;93.30
66681;BME280;53575;51.366;12.350;2023-08-12T01:52:04;100567.59;;;18.31;93.34
66681;BME280;53575;51.366;12.350;2023-08-12T01:54:30;100569.44;;;18.29;93.27
66681;BME280;53575;51.366;12.350;2023-08-12T01:57:02;100574.66;;;18.31;93.22
66681;BME280;53575;51.366;12.350;2023-08-12T01:59:27;100564.94;;;18.31;93.50
66681;BME280;53575;51.366;12.350;2023-08-12T02:01:53;100567.72;;;18.28;93.57
66681;BME280;53575;51.366;12.350;2023-08-12T02:04:18;100563.31;;;18.27;94.06
66681;BME280;53575;51.366;12.350;2023-08-12T02:06:44;100567.91;;;18.22;94.34
66681;BME280;53575;51.366;12.350;2023-08-12T02:09:09;100558.28;;;18.19;94.44
66681;BME280;53575;51.366;12.350;2023-08-12T02:11:34;100554.84;;;18.17;94.62
66681;BME280;53575;51.366;12.350;2023-08-12T02:14:00;100556.63;;;18.17;94.65
66681;BME280;53575;51.366;12.350;2023-08-12T02:16:25;100551.28;;;18.18;95.15
66681;BME280;53575;51.366;12.350;2023-08-12T02:18:50;100548.56;;;18.20;95.46
66681;BME280;53575;51.366;12.350;2023-08-12T02:21:16;100544.47;;;18.11;95.78
66681;BME280;53575;51.366;12.350;2023-08-12T02:23:41;100540.16;;;18.09;95.92
66681;BME280;53575;51.366;12.350;2023-08-12T02:26:09;100530.53;;;18.06;96.16
66681;BME280;53575;51.366;12.350;2023-08-12T02:28:34;100535.81;;;18.06;96.40
66681;BME280;53575;51.366;12.350;2023-08-12T02:31:00;100536.78;;;18.03;96.87
66681;BME280;53575;51.366;12.350;2023-08-12T02:33:25;100528.09;;;18.00;97.09
66681;BME280;53575;51.366;12.350;2023-08-12T02:35:53;100521.00;;;18.00;97.25
66681;BME280;53575;51.366;12.350;2023-08-12T02:38:19;100521.78;;;18.04;97.52
66681;BME280;53575;51.366;12.350;2023-08-12T02:40:47;100519.91;;;18.08;97.87
66681;BME280;53575;51.366;12.350;2023-08-12T02:43:13;100519.09;;;18.06;97.54
66681;BME280;53575;51.366;12.350;2023-08-12T02:45:38;100512.06;;;18.05;97.35
66681;BME280;53575;51.366;12.350;2023-08-12T02:48:04;100509.38;;;18.06;97.21
66681;BME280;53575;51.366;12.350;2023-08-12T02:50:29;100510.25;;;18.07;97.15
66681;BME280;53575;51.366;12.350;2023-08-12T02:52:55;100511.06;;;18.09;97.73
66681;BME280;53575;51.366;12.350;2023-08-12T02:55:20;100505.81;;;18.07;97.43
66681;BME280;53575;51.366;12.350;2023-08-12T02:57:46;100503.22;;;18.06;97.61
66681;BME280;53575;51.366;12.350;2023-08-12T03:00:12;100499.75;;;18.03;97.52
66681;BME280;53575;51.366;12.350;2023-08-12T03:02:37;100498.03;;;18.02;97.82
66681;BME280;53575;51.366;12.350;2023-08-12T03:05:03;100506.84;;;18.03;98.75
66681;BME280;53575;51.366;12.350;2023-08-12T03:07:28;100495.41;;;18.02;98.21
66681;BME280;53575;51.366;12.350;2023-08-12T03:09:53;100495.34;;;18.04;99.27
66681;BME280;53575;51.366;12.350;2023-08-12T03:12:19;100497.94;;;18.06;98.02
66681;BME280;53575;51.366;12.350;2023-08-12T03:14:44;100487.38;;;18.06;97.32
66681;BME280;53575;51.366;12.350;2023-08-12T03:17:10;100490.63;;;18.12;99.09
66681;BME280;53575;51.366;12.350;2023-08-12T03:19:35;100485.50;;;18.08;98.65
66681;BME280;53575;51.366;12.350;2023-08-12T03:22:01;100485.41;;;18.11;98.92
66681;BME280;53575;51.366;12.350;2023-08-12T03:24:26;100485.50;;;18.08;98.39
66681;BME280;53575;51.366;12.350;2023-08-12T03:26:51;100478.50;;;18.07;99.00
66681;BME280;53575;51.366;12.350;2023-08-12T03:29:17;100484.66;;;18.07;97.80
66681;BME280;53575;51.366;12.350;2023-08-12T03:31:42;100481.06;;;18.10;97.36
66681;BME280;53575;51.366;12.350;2023-08-12T03:34:08;100483.78;;;18.07;97.33
66681;BME280;53575;51.366;12.350;2023-08-12T03:36:33;100480.28;;;18.06;97.31
66681;BME280;53575;51.366;12.350;2023-08-12T03:38:58;100477.69;;;18.05;98.13
66681;BME280;53575;51.366;12.350;2023-08-12T03:41:24;100476.78;;;18.06;97.69
66681;BME280;53575;51.366;12.350;2023-08-12T03:43:49;100474.94;;;18.08;99.00
66681;BME280;53575;51.366;12.350;2023-08-12T03:46:16;100473.22;;;18.07;98.45
66681;BME280;53575;51.366;12.350;2023-08-12T03:48:42;100473.22;;;18.07;97.62
66681;BME280;53575;51.366;12.350;2023-08-12T03:51:07;100475.94;;;18.05;97.58
66681;BME280;53575;51.366;12.350;2023-08-12T03:53:32;100478.44;;;18.08;98.41
66681;BME280;53575;51.366;12.350;2023-08-12T03:55:58;100477.38;;;18.14;98.91
66681;BME280;53575;51.366;12.350;2023-08-12T03:58:23;100472.19;;;18.11;98.62
66681;BME280;53575;51.366;12.350;2023-08-12T04:00:49;100478.41;;;18.10;97.03
66681;BME280;53575;51.366;12.350;2023-08-12T04:03:14;100481.00;;;18.11;96.89
66681;BME280;53575;51.366;12.350;2023-08-12T04:05:49;100474.75;;;18.14;96.49
66681;BME280;53575;51.366;12.350;2023-08-12T04:08:18;100481.00;;;18.11;96.10
66681;BME280;53575;51.366;12.350;2023-08-12T04:10:46;100474.78;;;18.12;95.95
66681;BME280;53575;51.366;12.350;2023-08-12T04:13:11;100472.78;;;18.19;95.60
66681;BME280;53575;51.366;12.350;2023-08-12T04:15:36;100470.88;;;18.24;95.15
66681;BME280;53575;51.366;12.350;2023-08-12T04:18:02;100469.06;;;18.24;95.06
66681;BME280;53575;51.366;12.350;2023-08-12T04:20:28;100472.69;;;18.22;96.00
66681;BME280;53575;51.366;12.350;2023-08-12T04:22:53;100474.41;;;18.23;95.84
66681;BME280;53575;51.366;12.350;2023-08-12T04:25:18;100475.91;;;18.30;95.33
66681;BME280;53575;51.366;12.350;2023-08-12T04:27:44;100466.16;;;18.32;94.86
66681;BME280;53575;51.366;12.350;2023-08-12T04:30:09;100473.06;;;18.36;94.52
66681;BME280;53575;51.366;12.350;2023-08-12T04:32:35;100468.47;;;18.41;94.20
66681;BME280;53575;51.366;12.350;2023-08-12T04:35:01;100464.88;;;18.42;94.05
66681;BME280;53575;51.366;12.350;2023-08-12T04:37:26;100464.78;;;18.45;94.22
66681;BME280;53575;51.366;12.350;2023-08-12T04:39:53;100460.25;;;18.49;93.72
66681;BME280;53575;51.366;12.350;2023-08-12T04:42:18;100462.78;;;18.52;93.62
66681;BME280;53575;51.366;12.350;2023-08-12T04:44:43;100458.28;;;18.54;93.46
66681;BME280;53575;51.366;12.350;2023-08-12T04:47:09;100458.13;;;18.59;93.47
66681;BME280;53575;51.366;12.350;2023-08-12T04:49:35;100462.50;;;18.60;93.40
66681;BME280;53575;51.366;12.350;2023-08-12T04:52:00;100464.03;;;18.65;93.08
66681;BME280;53575;51.366;12.350;2023-08-12T04:54:26;100457.63;;;18.72;92.85
66681;BME280;53575;51.366;12.350;2023-08-12T04:56:51;100467.25;;;18.75;92.62
66681;BME280;53575;51.366;12.350;2023-08-12T04:59:16;100465.41;;;18.77;92.69
66681;BME280;53575;51.366;12.350;2023-08-12T05:01:42;100466.88;;;18.86;92.15
66681;BME280;53575;51.366;12.350;2023-08-12T05:04:07;100456.22;;;18.87;92.19
66681;BME280;53575;51.366;12.350;2023-08-12T05:06:33;100461.03;;;18.99;91.12
66681;BME280;53575;51.366;12.350;2023-08-12T05:08:58;100469.53;;;19.08;91.46
66681;BME280;53575;51.366;12.350;2023-08-12T05:11:24;100460.16;;;18.99;91.37
66681;BME280;53575;51.366;12.350;2023-08-12T05:13:49;100459.69;;;19.11;90.82
66681;BME280;53575;51.366;12.350;2023-08-12T05:16:14;100456.47;;;19.03;90.78
66681;BME280;53575;51.366;12.350;2023-08-12T05:18:40;100461.03;;;18.99;90.96
66681;BME280;53575;51.366;12.350;2023-08-12T05:21:05;100465.47;;;18.99;91.46
66681;BME280;53575;51.366;12.350;2023-08-12T05:23:31;100465.56;;;18.96;91.41
66681;BME280;53575;51.366;12.350;2023-08-12T05:25:56;100465.53;;;18.97;91.10
66681;BME280;53575;51.366;12.350;2023-08-12T05:28:22;100458.34;;;19.01;91.07
66681;BME280;53575;51.366;12.350;2023-08-12T05:30:48;100467.81;;;19.07;90.88
66681;BME280;53575;51.366;12.350;2023-08-12T05:33:13;100466.16;;;19.04;90.86
66681;BME280;53575;51.366;12.350;2023-08-12T05:35:38;100460.69;;;19.09;90.91
66681;BME280;53575;51.366;12.350;2023-08-12T05:38:04;100463.63;;;19.23;90.48
66681;BME280;53575;51.366;12.350;2023-08-12T05:40:29;100464.34;;;19.28;90.43
66681;BME280;53575;51.366;12.350;2023-08-12T05:42:55;100463.03;;;19.38;89.88
66681;BME280;53575;51.366;12.350;2023-08-12T05:45:20;100462.75;;;19.46;89.53
66681;BME280;53575;51.366;12.350;2023-08-12T05:47:45;100465.03;;;19.77;87.95
66681;BME280;53575;51.366;12.350;2023-08-12T05:50:11;100465.44;;;19.88;87.08
66681;BME280;53575;51.366;12.350;2023-08-12T05:52:36;100459.84;;;19.94;86.92
66681;BME280;53575;51.366;12.350;2023-08-12T05:55:02;100466.38;;;20.08;86.05
66681;BME280;53575;51.366;12.350;2023-08-12T05:57:27;100463.72;;;20.28;85.52
66681;BME280;53575;51.366;12.350;2023-08-12T05:59:53;100459.44;;;20.44;84.42
66681;BME280;53575;51.366;12.350;2023-08-12T06:02:18;100471.94;;;20.63;83.41
66681;BME280;53575;51.366;12.350;2023-08-12T06:04:43;100463.34;;;20.77;82.75
66681;BME280;53575;51.366;12.350;2023-08-12T06:07:09;100460.47;;;21.00;81.40
66681;BME280;53575;51.366;12.350;2023-08-12T06:09:34;100459.31;;;21.06;80.75
66681;BME280;53575;51.366;12.350;2023-08-12T06:11:59;100454.72;;;21.09;80.61
66681;BME280;53575;51.366;12.350;2023-08-12T06:14:25;100459.31;;;21.25;79.48
66681;BME280;53575;51.366;12.350;2023-08-12T06:16:50;100458.38;;;21.26;80.03
66681;BME280;53575;51.366;12.350;2023-08-12T06:19:16;100463.53;;;21.29;79.08
66681;BME280;53575;51.366;12.350;2023-08-12T06:21:41;100450.41;;;21.26;79.37
66681;BME280;53575;51.366;12.350;2023-08-12T06:24:06;100450.59;;;21.21;79.84
66681;BME280;53575;51.366;12.350;2023-08-12T06:26:32;100453.22;;;21.23;79.85
66681;BME280;53575;51.366;12.350;2023-08-12T06:28:57;100451.13;;;21.29;79.59
66681;BME280;53575;51.366;12.350;2023-08-12T06:31:23;100450.31;;;21.27;79.44
66681;BME280;53575;51.366;12.350;2023-08-12T06:33:48;100452.28;;;21.24;80.03
66681;BME280;53575;51.366;12.350;2023-08-12T06:36:13;100447.44;;;21.32;80.01
66681;BME280;53575;51.366;12.350;2023-08-12T06:38:39;100454.94;;;21.42;79.78
66681;BME280;53575;51.366;12.350;2023-08-12T06:41:04;100453.94;;;21.62;79.44
66681;BME280;53575;51.366;12.350;2023-08-12T06:43:30;100445.59;;;21.70;79.36
66681;BME280;53575;51.366;12.350;2023-08-12T06:45:55;100446.84;;;21.80;78.83
66681;BME280;53575;51.366;12.350;2023-08-12T06:48:21;100439.72;;;21.81;78.97
66681;BME280;53575;51.366;12.350;2023-08-12T06:50:53;100440.69;;;21.80;79.21
66681;BME280;53575;51.366;12.350;2023-08-12T06:53:18;100444.97;;;21.82;79.49
66681;BME280;53575;51.366;12.350;2023-08-12T06:55:44;100441.22;;;21.86;79.91
66681;BME280;53575;51.366;12.350;2023-08-12T06:58:10;100437.78;;;21.84;79.33
66681;BME280;53575;51.366;12.350;2023-08-12T07:00:36;100435.41;;;21.78;79.19
66681;BME280;53575;51.366;12.350;2023-08-12T07:03:01;100443.41;;;21.78;79.33
66681;BME280;53575;51.366;12.350;2023-08-12T07:05:27;100441.38;;;21.83;79.12
66681;BME280;53575;51.366;12.350;2023-08-12T07:07:52;100434.63;;;21.94;78.71
66681;BME280;53575;51.366;12.350;2023-08-12T07:10:17;100431.88;;;22.12;77.89
66681;BME280;53575;51.366;12.350;2023-08-12T07:12:43;100438.34;;;22.26;77.54
66681;BME280;53575;51.366;12.350;2023-08-12T07:15:08;100430.69;;;22.35;77.17
66681;BME280;53575;51.366;12.350;2023-08-12T07:17:36;100425.31;;;22.37;76.64
66681;BME280;53575;51.366;12.350;2023-08-12T07:20:01;100426.22;;;22.53;76.52
66681;BME280;53575;51.366;12.350;2023-08-12T07:22:27;100422.59;;;22.54;76.77
66681;BME280;53575;51.366;12.350;2023-08-12T07:24:52;100426.91;;;22.57;76.64
66681;BME280;53575;51.366;12.350;2023-08-12T07:27:18;100430.41;;;22.57;76.68
66681;BME280;53575;51.366;12.350;2023-08-12T07:29:43;100435.44;;;22.63;76.65
66681;BME280;53575;51.366;12.350;2023-08-12T07:32:09;100432.50;;;22.68;76.62
66681;BME280;53575;51.366;12.350;2023-08-12T07:34:34;100433.91;;;22.75;76.42
66681;BME280;53575;51.366;12.350;2023-08-12T07:36:59;100429.00;;;22.83;76.27
66681;BME280;53575;51.366;12.350;2023-08-12T07:39:25;100426.81;;;22.92;76.17
66681;BME280;53575;51.366;12.350;2023-08-12T07:41:51;100429.72;;;23.03;75.25
66681;BME280;53575;51.366;12.350;2023-08-12T07:44:16;100424.06;;;23.09;74.68
66681;BME280;53575;51.366;12.350;2023-08-12T07:46:42;100416.06;;;23.09;74.82
66681;BME280;53575;51.366;12.350;2023-08-12T07:49:07;100420.59;;;23.23;74.51
66681;BME280;53575;51.366;12.350;2023-08-12T07:51:32;100427.81;;;23.37;74.59
66681;BME280;53575;51.366;12.350;2023-08-12T07:53:58;100429.94;;;23.46;74.40
66681;BME280;53575;51.366;12.350;2023-08-12T07:56:23;100426.94;;;23.52;74.20
66681;BME280;53575;51.366;12.350;2023-08-12T07:58:49;100436.13;;;23.62;74.04
66681;BME280;53575;51.366;12.350;2023-08-12T08:01:14;100430.13;;;23.58;73.78
66681;BME280;53575;51.366;12.350;2023-08-12T08:03:40;100429.16;;;23.59;74.26
66681;BME280;53575;51.366;12.350;2023-08-12T08:06:05;100428.97;;;23.63;74.46
66681;BME280;53575;51.366;12.350;2023-08-12T08:08:30;100433.25;;;23.81;73.61
66681;BME280;53575;51.366;12.350;2023-08-12T08:10:56;100438.34;;;23.86;72.87
66681;BME280;53575;51.366;12.350;2023-08-12T08:13:21;100437.47;;;23.85;73.39
66681;BME280;53575;51.366;12.350;2023-08-12T08:15:46;100440.78;;;23.89;73.04
66681;BME280;53575;51.366;12.350;2023-08-12T08:18:12;100442.59;;;23.88;73.22
66681;BME280;53575;51.366;12.350;2023-08-12T08:20:37;100440.03;;;23.87;73.42
66681;BME280;53575;51.366;12.350;2023-08-12T08:23:03;100440.16;;;23.85;73.54
66681;BME280;53575;51.366;12.350;2023-08-12T08:25:28;100437.19;;;23.90;73.14
66681;BME280;53575;51.366;12.350;2023-08-12T08:27:54;100431.53;;;23.80;73.96
66681;BME280;53575;51.366;12.350;2023-08-12T08:30:19;100442.72;;;23.87;73.07
66681;BME280;53575;51.366;12.350;2023-08-12T08:32:45;100442.88;;;23.83;72.34
66681;BME280;53575;51.366;12.350;2023-08-12T08:35:11;100442.31;;;23.78;71.79
66681;BME280;53575;51.366;12.350;2023-08-12T08:37:37;100445.50;;;23.69;71.18
66681;BME280;53575;51.366;12.350;2023-08-12T08:40:02;100437.34;;;23.56;72.56
66681;BME280;53575;51.366;12.350;2023-08-12T08:42:28;100438.28;;;23.55;72.28
66681;BME280;53575;51.366;12.350;2023-08-12T08:45:00;100439.31;;;23.53;72.57
66681;BME280;53575;51.366;12.350;2023-08-12T08:47:27;100443.97;;;23.49;72.92
66681;BME280;53575;51.366;12.350;2023-08-12T08:49:56;100449.84;;;23.40;72.72
66681;BME280;53575;51.366;12.350;2023-08-12T08:52:25;100451.47;;;23.43;72.33
66681;BME280;53575;51.366;12.350;2023-08-12T08:54:51;100444.84;;;23.34;73.38
66681;BME280;53575;51.366;12.350;2023-08-12T08:57:18;100453.38;;;23.25;73.73
66681;BME280;53575;51.366;12.350;2023-08-12T08:59:44;100449.88;;;23.24;73.57
66681;BME280;53575;51.366;12.350;2023-08-12T09:02:16;100444.84;;;23.34;72.93
66681;BME280;53575;51.366;12.350;2023-08-12T09:04:43;100431.34;;;23.37;72.90
66681;BME280;53575;51.366;12.350;2023-08-12T09:07:09;100439.06;;;23.42;72.70
66681;BME280;53575;51.366;12.350;2023-08-12T09:09:35;100438.38;;;23.54;72.47
66681;BME280;53575;51.366;12.350;2023-08-12T09:12:01;100437.44;;;23.71;71.25
66681;BME280;53575;51.366;12.350;2023-08-12T09:14:28;100441.94;;;23.84;70.95
66681;BME280;53575;51.366;12.350;2023-08-12T09:16:54;100441.22;;;24.11;70.13
66681;BME280;53575;51.366;12.350;2023-08-12T09:19:20;100439.56;;;24.24;69.02
66681;BME280;53575;51.366;12.350;2023-08-12T09:21:52;100443.72;;;24.14;69.51
66681;BME280;53575;51.366;12.350;2023-08-12T09:24:24;100446.22;;;24.17;69.30
66681;BME280;53575;51.366;12.350;2023-08-12T09:26:56;100446.03;;;24.20;69.73
66681;BME280;53575;51.366;12.350;2023-08-12T09:29:31;100440.78;;;24.33;69.08
66681;BME280;53575;51.366;12.350;2023-08-12T09:32:14;100444.94;;;24.39;69.12
66681;BME280;53575;51.366;12.350;2023-08-12T09:34:50;100428.53;;;24.59;67.63
66681;BME280;53575;51.366;12.350;2023-08-12T09:37:17;100431.66;;;24.80;67.01
66681;BME280;53575;51.366;12.350;2023-08-12T09:39:43;100421.59;;;24.98;66.26
66681;BME280;53575;51.366;12.350;2023-08-12T09:42:10;100417.38;;;25.08;65.36
66681;BME280;53575;51.366;12.350;2023-08-12T09:44:39;100413.41;;;25.15;65.04
66681;BME280;53575;51.366;12.350;2023-08-12T09:47:05;100413.13;;;25.33;65.28
66681;BME280;53575;51.366;12.350;2023-08-12T09:49:30;100412.13;;;25.48;63.95
66681;BME280;53575;51.366;12.350;2023-08-12T09:51:56;100415.34;;;25.53;63.28
66681;BME280;53575;51.366;12.350;2023-08-12T09:54:26;100408.19;;;25.53;61.91
66681;BME280;53575;51.366;12.350;2023-08-12T09:56:56;100405.81;;;25.49;63.22
66681;BME280;53575;51.366;12.350;2023-08-12T09:59:22;100411.69;;;25.41;63.25
66681;BME280;53575;51.366;12.350;2023-08-12T10:01:52;100407.75;;;25.05;64.45
66681;BME280;53575;51.366;12.350;2023-08-12T10:04:22;100409.09;;;24.98;64.56
66681;BME280;53575;51.366;12.350;2023-08-12T10:06:48;100406.03;;;25.04;64.39
66681;BME280;53575;51.366;12.350;2023-08-12T10:09:15;100405.44;;;25.14;64.54
66681;BME280;53575;51.366;12.350;2023-08-12T10:11:42;100409.38;;;25.22;64.69
66681;BME280;53575;51.366;12.350;2023-08-12T10:14:09;100414.19;;;25.57;64.49
66681;BME280;53575;51.366;12.350;2023-08-12T10:16:36;100423.94;;;25.58;63.74
66681;BME280;53575;51.366;12.350;2023-08-12T10:19:02;100412.56;;;25.55;64.61
66681;BME280;53575;51.366;12.350;2023-08-12T10:21:29;100422.59;;;25.38;64.63
66681;BME280;53575;51.366;12.350;2023-08-12T10:23:57;100419.28;;;25.20;65.68
66681;BME280;53575;51.366;12.350;2023-08-12T10:26:24;100417.00;;;25.14;66.45
66681;BME280;53575;51.366;12.350;2023-08-12T10:28:50;100415.03;;;24.89;67.49
66681;BME280;53575;51.366;12.350;2023-08-12T10:31:15;100423.63;;;24.80;68.52
66681;BME280;53575;51.366;12.350;2023-08-12T10:33:41;100422.34;;;24.73;68.55
66681;BME280;53575;51.366;12.350;2023-08-12T10:36:08;100427.75;;;24.57;68.98
66681;BME280;53575;51.366;12.350;2023-08-12T10:38:34;100426.81;;;24.44;68.82
66681;BME280;53575;51.366;12.350;2023-08-12T10:41:15;100427.53;;;24.31;69.05
66681;BME280;53575;51.366;12.350;2023-08-12T10:43:59;100433.34;;;24.10;69.34
66681;BME280;53575;51.366;12.350;2023-08-12T10:46:34;100429.75;;;23.95;72.08
66681;BME280;53575;51.366;12.350;2023-08-12T10:49:10;100432.50;;;23.79;73.60
66681;BME280;53575;51.366;12.350;2023-08-12T10:51:52;100427.78;;;23.52;75.60
66681;BME280;53575;51.366;12.350;2023-08-12T10:54:24;100404.34;;;23.27;78.16
66681;BME280;53575;51.366;12.350;2023-08-12T11:02:33;100377.81;;;22.94;85.45
66681;BME280;53575;51.366;12.350;2023-08-12T11:10:04;100371.84;;;23.21;85.29
66681;BME280;53575;51.366;12.350;2023-08-12T11:12:33;100368.34;;;23.20;86.33
66681;BME280;53575;51.366;12.350;2023-08-12T11:15:00;100355.31;;;23.30;86.09
66681;BME280;53575;51.366;12.350;2023-08-12T11:17:32;100359.16;;;23.40;86.40
66681;BME280;53575;51.366;12.350;2023-08-12T11:19:58;100357.88;;;23.47;86.24
66681;BME280;53575;51.366;12.350;2023-08-12T11:22:24;100340.84;;;23.64;86.15
66681;BME280;53575;51.366;12.350;2023-08-12T11:24:50;100343.19;;;23.84;85.23
66681;BME280;53575;51.366;12.350;2023-08-12T11:27:16;100339.00;;;23.95;84.36
66681;BME280;53575;51.366;12.350;2023-08-12T11:29:43;100332.06;;;24.21;82.85
66681;BME280;53575;51.366;12.350;2023-08-12T11:32:08;100331.13;;;24.50;81.84
66681;BME280;53575;51.366;12.350;2023-08-12T11:34:34;100332.63;;;24.96;79.17
66681;BME280;53575;51.366;12.350;2023-08-12T11:37:00;100341.34;;;25.26;76.20
66681;BME280;53575;51.366;12.350;2023-08-12T11:39:25;100320.59;;;25.43;75.42
66681;BME280;53575;51.366;12.350;2023-08-12T11:41:51;100325.34;;;25.65;75.07
66681;BME280;53575;51.366;12.350;2023-08-12T11:44:21;100311.69;;;25.95;73.77
66681;BME280;53575;51.366;12.350;2023-08-12T11:46:47;100308.34;;;26.30;72.48
66681;BME280;53575;51.366;12.350;2023-08-12T11:49:12;100306.88;;;26.62;70.02
66681;BME280;53575;51.366;12.350;2023-08-12T11:51:37;100298.38;;;26.92;68.55
66681;BME280;53575;51.366;12.350;2023-08-12T11:54:03;100304.28;;;27.21;67.13
66681;BME280;53575;51.366;12.350;2023-08-12T11:56:29;100298.41;;;27.16;65.23
66681;BME280;53575;51.366;12.350;2023-08-12T11:58:55;100286.41;;;27.09;64.94
66681;BME280;53575;51.366;12.350;2023-08-12T12:01:21;100289.94;;;27.10;64.55
66681;BME280;53575;51.366;12.350;2023-08-12T12:03:51;100282.19;;;27.18;63.64
66681;BME280;53575;51.366;12.350;2023-08-12T12:06:17;100290.06;;;27.32;63.49
66681;BME280;53575;51.366;12.350;2023-08-12T12:08:44;100288.13;;;27.45;63.33
66681;BME280;53575;51.366;12.350;2023-08-12T12:11:09;100279.47;;;27.42;61.49
66681;BME280;53575;51.366;12.350;2023-08-12T12:13:35;100280.53;;;27.39;59.82
66681;BME280;53575;51.366;12.350;2023-08-12T12:16:01;100264.97;;;27.56;60.31
66681;BME280;53575;51.366;12.350;2023-08-12T12:18:26;100263.16;;;27.67;58.62
66681;BME280;53575;51.366;12.350;2023-08-12T12:20:55;100267.72;;;27.78;59.17
66681;BME280;53575;51.366;12.350;2023-08-12T12:23:27;100260.41;;;27.91;57.84
66681;BME280;53575;51.366;12.350;2023-08-12T12:26:03;100264.44;;;27.97;57.14
66681;BME280;53575;51.366;12.350;2023-08-12T12:28:29;100262.94;;;28.15;54.91
66681;BME280;53575;51.366;12.350;2023-08-12T12:30:54;100256.34;;;28.42;52.41
66681;BME280;53575;51.366;12.350;2023-08-12T12:33:20;100257.44;;;28.51;53.05
66681;BME280;53575;51.366;12.350;2023-08-12T12:35:45;100247.47;;;28.74;55.11
66681;BME280;53575;51.366;12.350;2023-08-12T12:38:11;100247.59;;;29.16;54.26
66681;BME280;53575;51.366;12.350;2023-08-12T12:40:36;100250.97;;;29.18;50.32
66681;BME280;53575;51.366;12.350;2023-08-12T12:43:03;100239.38;;;29.17;50.02
66681;BME280;53575;51.366;12.350;2023-08-12T12:45:29;100242.66;;;29.21;50.84
66681;BME280;53575;51.366;12.350;2023-08-12T12:47:54;100240.53;;;29.03;50.55
66681;BME280;53575;51.366;12.350;2023-08-12T12:50:20;100244.22;;;29.02;50.94